Alta Floresta, Brazil
Current Conditions -  °F | °C
As of 1:00 PM on Thursday 23 Oct 2014 (Local Time) from SBAT Reporting Station
Rain Showers Rain Showers  
Wind Chill: 88°   Ceiling: Unl
Heat Index: 94°   Visibility: 6mi
Dew Point: 72°   Wind: 9mph
Humidity: 58%   Direction: 10°N
Pressure: 29.91"   Gusts: NA
Location:  9.9°S, 55.91°W
Report Text: SBAT 231600Z 01008KT 9999 VCSH SCT030 FEW040TCU SCT100 31/22 Q1013
Loading
Personal Weather Stations






























Interactive Weather Map New forecast layout! Learn more

10-Day Weather Forecast

Advertisements
Track Severe Weather on mobile